sensor_id;sensor_type;location;lat;lon;timestamp;P1;durP1;ratioP1;P2;durP2;ratioP2
483;SDS011;228;48.922;12.198;2023-07-20T04:02:13;6.63;;;3.57;;
483;SDS011;228;48.922;12.198;2023-07-20T04:04:42;5.27;;;3.30;;
483;SDS011;228;48.922;12.198;2023-07-20T04:07:08;4.93;;;3.72;;
483;SDS011;228;48.922;12.198;2023-07-20T04:09:35;4.07;;;3.45;;
483;SDS011;228;48.922;12.198;2023-07-20T04:12:01;4.53;;;3.25;;
483;SDS011;228;48.922;12.198;2023-07-20T04:14:27;4.65;;;3.50;;
483;SDS011;228;48.922;12.198;2023-07-20T04:16:53;6.72;;;3.50;;
483;SDS011;228;48.922;12.198;2023-07-20T04:19:19;6.10;;;3.42;;
483;SDS011;228;48.922;12.198;2023-07-20T04:21:45;4.63;;;3.30;;
483;SDS011;228;48.922;12.198;2023-07-20T04:24:12;5.40;;;3.20;;
483;SDS011;228;48.922;12.198;2023-07-20T04:26:39;4.90;;;3.38;;
483;SDS011;228;48.922;12.198;2023-07-20T04:29:05;5.22;;;3.25;;
483;SDS011;228;48.922;12.198;2023-07-20T04:31:37;4.40;;;3.30;;
483;SDS011;228;48.922;12.198;2023-07-20T04:34:04;3.75;;;3.15;;
483;SDS011;228;48.922;12.198;2023-07-20T04:36:33;4.60;;;3.08;;
483;SDS011;228;48.922;12.198;2023-07-20T04:38:59;3.55;;;3.00;;
483;SDS011;228;48.922;12.198;2023-07-20T04:41:31;4.70;;;3.20;;
483;SDS011;228;48.922;12.198;2023-07-20T04:43:57;5.65;;;3.05;;
483;SDS011;228;48.922;12.198;2023-07-20T04:46:26;3.50;;;3.20;;
483;SDS011;228;48.922;12.198;2023-07-20T04:48:53;3.65;;;3.28;;
483;SDS011;228;48.922;12.198;2023-07-20T04:51:19;4.65;;;3.05;;
483;SDS011;228;48.922;12.198;2023-07-20T04:53:50;3.30;;;2.90;;
483;SDS011;228;48.922;12.198;2023-07-20T04:56:16;4.75;;;3.15;;
483;SDS011;228;48.922;12.198;2023-07-20T04:58:43;3.85;;;2.72;;
483;SDS011;228;48.922;12.198;2023-07-20T05:01:09;3.75;;;3.13;;
483;SDS011;228;48.922;12.198;2023-07-20T05:03:35;3.30;;;2.80;;
483;SDS011;228;48.922;12.198;2023-07-20T05:06:02;3.92;;;3.00;;
483;SDS011;228;48.922;12.198;2023-07-20T05:08:37;3.60;;;2.83;;
483;SDS011;228;48.922;12.198;2023-07-20T05:11:10;5.57;;;3.15;;
483;SDS011;228;48.922;12.198;2023-07-20T05:13:37;4.60;;;2.70;;
483;SDS011;228;48.922;12.198;2023-07-20T05:16:03;5.28;;;3.08;;
483;SDS011;228;48.922;12.198;2023-07-20T05:18:35;5.05;;;2.53;;
483;SDS011;228;48.922;12.198;2023-07-20T05:21:01;3.53;;;2.80;;
483;SDS011;228;48.922;12.198;2023-07-20T05:23:27;5.90;;;3.17;;
483;SDS011;228;48.922;12.198;2023-07-20T05:25:54;3.33;;;2.60;;
483;SDS011;228;48.922;12.198;2023-07-20T05:28:22;3.38;;;2.67;;
483;SDS011;228;48.922;12.198;2023-07-20T05:30:48;5.85;;;2.92;;
483;SDS011;228;48.922;12.198;2023-07-20T05:33:16;3.72;;;2.58;;
483;SDS011;228;48.922;12.198;2023-07-20T05:35:43;5.95;;;2.60;;
483;SDS011;228;48.922;12.198;2023-07-20T05:38:10;4.15;;;2.70;;
483;SDS011;228;48.922;12.198;2023-07-20T05:40:37;7.38;;;3.20;;
483;SDS011;228;48.922;12.198;2023-07-20T05:43:03;3.22;;;2.70;;
483;SDS011;228;48.922;12.198;2023-07-20T05:45:29;5.85;;;2.58;;
483;SDS011;228;48.922;12.198;2023-07-20T05:47:55;4.03;;;2.50;;
483;SDS011;228;48.922;12.198;2023-07-20T05:50:21;7.35;;;2.78;;
483;SDS011;228;48.922;12.198;2023-07-20T05:52:47;7.55;;;2.72;;
483;SDS011;228;48.922;12.198;2023-07-20T05:55:13;3.13;;;2.55;;
483;SDS011;228;48.922;12.198;2023-07-20T05:57:39;5.18;;;3.13;;
483;SDS011;228;48.922;12.198;2023-07-20T06:00:07;3.65;;;2.67;;
483;SDS011;228;48.922;12.198;2023-07-20T06:02:41;3.35;;;3.05;;
483;SDS011;228;48.922;12.198;2023-07-20T06:05:08;3.22;;;2.70;;
483;SDS011;228;48.922;12.198;2023-07-20T06:07:37;2.92;;;2.65;;
483;SDS011;228;48.922;12.198;2023-07-20T06:10:03;8.77;;;2.80;;
483;SDS011;228;48.922;12.198;2023-07-20T06:12:31;3.40;;;2.67;;
483;SDS011;228;48.922;12.198;2023-07-20T06:15:01;5.18;;;3.00;;
483;SDS011;228;48.922;12.198;2023-07-20T06:17:28;4.38;;;3.30;;
483;SDS011;228;48.922;12.198;2023-07-20T06:19:54;4.45;;;3.20;;
483;SDS011;228;48.922;12.198;2023-07-20T06:22:20;4.90;;;2.88;;
483;SDS011;228;48.922;12.198;2023-07-20T06:24:45;5.70;;;3.00;;
483;SDS011;228;48.922;12.198;2023-07-20T06:27:11;3.40;;;3.10;;
483;SDS011;228;48.922;12.198;2023-07-20T06:29:38;5.00;;;2.97;;
483;SDS011;228;48.922;12.198;2023-07-20T06:32:04;4.78;;;3.08;;
483;SDS011;228;48.922;12.198;2023-07-20T06:34:30;3.60;;;3.13;;
483;SDS011;228;48.922;12.198;2023-07-20T06:37:02;5.05;;;3.08;;
483;SDS011;228;48.922;12.198;2023-07-20T06:39:29;5.50;;;3.50;;
483;SDS011;228;48.922;12.198;2023-07-20T06:41:55;4.30;;;3.25;;
483;SDS011;228;48.922;12.198;2023-07-20T06:44:22;5.32;;;3.40;;
483;SDS011;228;48.922;12.198;2023-07-20T06:46:48;4.20;;;3.42;;
483;SDS011;228;48.922;12.198;2023-07-20T06:49:26;4.07;;;3.15;;
483;SDS011;228;48.922;12.198;2023-07-20T06:51:53;4.20;;;3.25;;
483;SDS011;228;48.922;12.198;2023-07-20T06:54:19;6.55;;;3.38;;
483;SDS011;228;48.922;12.198;2023-07-20T06:56:45;4.50;;;3.42;;
483;SDS011;228;48.922;12.198;2023-07-20T06:59:11;5.38;;;3.17;;
483;SDS011;228;48.922;12.198;2023-07-20T07:01:37;5.93;;;3.47;;
483;SDS011;228;48.922;12.198;2023-07-20T07:04:04;3.38;;;2.90;;
483;SDS011;228;48.922;12.198;2023-07-20T07:06:31;4.57;;;3.30;;
483;SDS011;228;48.922;12.198;2023-07-20T07:09:04;6.10;;;3.47;;
483;SDS011;228;48.922;12.198;2023-07-20T07:11:31;4.03;;;3.53;;
483;SDS011;228;48.922;12.198;2023-07-20T07:13:59;8.25;;;3.60;;
483;SDS011;228;48.922;12.198;2023-07-20T07:16:37;5.65;;;3.70;;
483;SDS011;228;48.922;12.198;2023-07-20T07:19:06;5.07;;;3.22;;
483;SDS011;228;48.922;12.198;2023-07-20T07:21:39;5.13;;;3.33;;
483;SDS011;228;48.922;12.198;2023-07-20T07:24:08;3.85;;;3.05;;
483;SDS011;228;48.922;12.198;2023-07-20T07:26:54;6.00;;;3.22;;
483;SDS011;228;48.922;12.198;2023-07-20T07:29:21;3.35;;;3.00;;
483;SDS011;228;48.922;12.198;2023-07-20T07:31:51;4.47;;;3.25;;
483;SDS011;228;48.922;12.198;2023-07-20T07:34:17;4.65;;;3.30;;
483;SDS011;228;48.922;12.198;2023-07-20T07:36:44;4.53;;;3.22;;
483;SDS011;228;48.922;12.198;2023-07-20T07:39:12;6.18;;;3.60;;
483;SDS011;228;48.922;12.198;2023-07-20T07:41:39;4.53;;;3.45;;
483;SDS011;228;48.922;12.198;2023-07-20T07:44:06;3.55;;;3.17;;
483;SDS011;228;48.922;12.198;2023-07-20T07:46:32;4.88;;;3.20;;
483;SDS011;228;48.922;12.198;2023-07-20T07:49:02;4.40;;;3.53;;
483;SDS011;228;48.922;12.198;2023-07-20T07:51:28;6.70;;;3.03;;
483;SDS011;228;48.922;12.198;2023-07-20T07:53:54;3.65;;;3.20;;
483;SDS011;228;48.922;12.198;2023-07-20T07:56:20;5.55;;;2.90;;
483;SDS011;228;48.922;12.198;2023-07-20T07:58:48;3.70;;;2.90;;
483;SDS011;228;48.922;12.198;2023-07-20T08:01:17;4.78;;;2.67;;
483;SDS011;228;48.922;12.198;2023-07-20T08:03:47;3.70;;;3.13;;
483;SDS011;228;48.922;12.198;2023-07-20T08:06:16;3.58;;;3.05;;
483;SDS011;228;48.922;12.198;2023-07-20T08:08:43;6.47;;;3.00;;
483;SDS011;228;48.922;12.198;2023-07-20T08:11:13;4.75;;;3.17;;
483;SDS011;228;48.922;12.198;2023-07-20T08:13:42;8.23;;;3.28;;
483;SDS011;228;48.922;12.198;2023-07-20T08:16:11;4.32;;;3.00;;
483;SDS011;228;48.922;12.198;2023-07-20T08:18:44;4.70;;;2.78;;
483;SDS011;228;48.922;12.198;2023-07-20T08:21:11;5.75;;;3.00;;
483;SDS011;228;48.922;12.198;2023-07-20T08:23:37;4.28;;;2.85;;
483;SDS011;228;48.922;12.198;2023-07-20T08:26:04;9.38;;;3.47;;
483;SDS011;228;48.922;12.198;2023-07-20T08:28:36;4.32;;;2.60;;
483;SDS011;228;48.922;12.198;2023-07-20T08:31:02;3.00;;;2.70;;
483;SDS011;228;48.922;12.198;2023-07-20T08:33:32;3.92;;;2.40;;
483;SDS011;228;48.922;12.198;2023-07-20T08:36:00;3.20;;;2.80;;
483;SDS011;228;48.922;12.198;2023-07-20T08:38:27;2.97;;;2.65;;
483;SDS011;228;48.922;12.198;2023-07-20T08:40:53;3.72;;;2.97;;
483;SDS011;228;48.922;12.198;2023-07-20T08:43:21;4.00;;;2.63;;
483;SDS011;228;48.922;12.198;2023-07-20T08:45:49;3.05;;;2.50;;
483;SDS011;228;48.922;12.198;2023-07-20T08:48:17;5.85;;;2.60;;
483;SDS011;228;48.922;12.198;2023-07-20T08:50:44;2.88;;;2.63;;
483;SDS011;228;48.922;12.198;2023-07-20T08:53:12;3.22;;;2.40;;
483;SDS011;228;48.922;12.198;2023-07-20T08:55:39;3.00;;;2.60;;
483;SDS011;228;48.922;12.198;2023-07-20T08:58:08;2.80;;;2.60;;
483;SDS011;228;48.922;12.198;2023-07-20T09:00:37;4.10;;;2.63;;
483;SDS011;228;48.922;12.198;2023-07-20T09:03:04;3.40;;;2.58;;
483;SDS011;228;48.922;12.198;2023-07-20T09:05:31;3.47;;;2.55;;
483;SDS011;228;48.922;12.198;2023-07-20T09:07:57;3.45;;;2.55;;
483;SDS011;228;48.922;12.198;2023-07-20T09:10:23;2.28;;;1.95;;
483;SDS011;228;48.922;12.198;2023-07-20T09:12:49;3.58;;;1.92;;
483;SDS011;228;48.922;12.198;2023-07-20T09:15:16;4.72;;;2.40;;
483;SDS011;228;48.922;12.198;2023-07-20T09:17:46;4.72;;;1.83;;
483;SDS011;228;48.922;12.198;2023-07-20T09:20:14;1.65;;;1.55;;
483;SDS011;228;48.922;12.198;2023-07-20T09:22:41;4.28;;;2.00;;
483;SDS011;228;48.922;12.198;2023-07-20T09:25:15;3.25;;;1.85;;
483;SDS011;228;48.922;12.198;2023-07-20T09:27:42;3.08;;;1.88;;
483;SDS011;228;48.922;12.198;2023-07-20T09:30:13;3.15;;;2.20;;
483;SDS011;228;48.922;12.198;2023-07-20T09:32:41;5.43;;;2.28;;
483;SDS011;228;48.922;12.198;2023-07-20T09:35:16;3.85;;;2.10;;
483;SDS011;228;48.922;12.198;2023-07-20T09:38:17;2.90;;;2.10;;
483;SDS011;228;48.922;12.198;2023-07-20T09:40:39;4.07;;;2.08;;
483;SDS011;228;48.922;12.198;2023-07-20T09:43:09;3.47;;;2.13;;
483;SDS011;228;48.922;12.198;2023-07-20T09:45:41;3.42;;;1.80;;
483;SDS011;228;48.922;12.198;2023-07-20T09:48:08;2.58;;;2.17;;
483;SDS011;228;48.922;12.198;2023-07-20T09:50:40;2.30;;;1.98;;
483;SDS011;228;48.922;12.198;2023-07-20T09:53:08;2.58;;;2.05;;
483;SDS011;228;48.922;12.198;2023-07-20T09:55:40;3.45;;;2.22;;
483;SDS011;228;48.922;12.198;2023-07-20T09:58:08;2.70;;;2.10;;
483;SDS011;228;48.922;12.198;2023-07-20T10:00:36;3.00;;;2.30;;
483;SDS011;228;48.922;12.198;2023-07-20T10:03:04;2.10;;;1.90;;
483;SDS011;228;48.922;12.198;2023-07-20T10:05:35;2.58;;;2.05;;
483;SDS011;228;48.922;12.198;2023-07-20T10:08:04;2.58;;;1.75;;
483;SDS011;228;48.922;12.198;2023-07-20T10:10:35;4.40;;;1.90;;
483;SDS011;228;48.922;12.198;2023-07-20T10:13:01;3.03;;;2.20;;
483;SDS011;228;48.922;12.198;2023-07-20T10:15:36;3.50;;;1.90;;
483;SDS011;228;48.922;12.198;2023-07-20T10:20:48;4.00;;;2.05;;
483;SDS011;228;48.922;12.198;2023-07-20T10:23:17;2.60;;;1.85;;
483;SDS011;228;48.922;12.198;2023-07-20T10:25:43;3.20;;;2.20;;
483;SDS011;228;48.922;12.198;2023-07-20T10:28:10;6.38;;;2.47;;
483;SDS011;228;48.922;12.198;2023-07-20T10:30:37;2.67;;;2.13;;
483;SDS011;228;48.922;12.198;2023-07-20T10:33:04;3.55;;;2.33;;
483;SDS011;228;48.922;12.198;2023-07-20T10:35:31;2.38;;;1.83;;
483;SDS011;228;48.922;12.198;2023-07-20T10:38:15;2.75;;;2.33;;
483;SDS011;228;48.922;12.198;2023-07-20T10:40:41;2.92;;;2.28;;
483;SDS011;228;48.922;12.198;2023-07-20T10:43:08;2.50;;;2.00;;
483;SDS011;228;48.922;12.198;2023-07-20T10:48:23;4.32;;;2.28;;
483;SDS011;228;48.922;12.198;2023-07-20T10:51:12;4.20;;;2.00;;
483;SDS011;228;48.922;12.198;2023-07-20T10:53:41;4.32;;;2.17;;
483;SDS011;228;48.922;12.198;2023-07-20T10:58:59;4.05;;;2.42;;
483;SDS011;228;48.922;12.198;2023-07-20T11:01:29;2.33;;;2.03;;
483;SDS011;228;48.922;12.198;2023-07-20T11:03:59;7.80;;;2.70;;
483;SDS011;228;48.922;12.198;2023-07-20T11:08:55;3.17;;;2.05;;
483;SDS011;228;48.922;12.198;2023-07-20T11:11:22;2.20;;;2.00;;
483;SDS011;228;48.922;12.198;2023-07-20T11:16:41;1.92;;;1.83;;
483;SDS011;228;48.922;12.198;2023-07-20T11:19:18;2.55;;;2.00;;
483;SDS011;228;48.922;12.198;2023-07-20T11:21:46;2.08;;;1.83;;
483;SDS011;228;48.922;12.198;2023-07-20T11:24:15;3.70;;;1.80;;
483;SDS011;228;48.922;12.198;2023-07-20T11:26:48;2.90;;;1.80;;
483;SDS011;228;48.922;12.198;2023-07-20T11:29:19;2.30;;;1.80;;
483;SDS011;228;48.922;12.198;2023-07-20T11:31:48;2.10;;;1.90;;
483;SDS011;228;48.922;12.198;2023-07-20T11:34:15;3.47;;;1.92;;
483;SDS011;228;48.922;12.198;2023-07-20T11:36:43;2.33;;;1.80;;
483;SDS011;228;48.922;12.198;2023-07-20T11:39:11;2.75;;;1.73;;
483;SDS011;228;48.922;12.198;2023-07-20T11:41:38;3.40;;;2.10;;
483;SDS011;228;48.922;12.198;2023-07-20T11:44:10;4.45;;;3.13;;
483;SDS011;228;48.922;12.198;2023-07-20T11:46:40;3.65;;;2.30;;
483;SDS011;228;48.922;12.198;2023-07-20T11:49:08;1.70;;;1.60;;
483;SDS011;228;48.922;12.198;2023-07-20T11:51:36;2.20;;;1.77;;
483;SDS011;228;48.922;12.198;2023-07-20T11:54:03;1.85;;;1.75;;
483;SDS011;228;48.922;12.198;2023-07-20T11:56:31;2.67;;;1.90;;
483;SDS011;228;48.922;12.198;2023-07-20T11:58:58;3.47;;;1.70;;
483;SDS011;228;48.922;12.198;2023-07-20T12:01:27;2.53;;;2.08;;
483;SDS011;228;48.922;12.198;2023-07-20T12:04:01;4.93;;;2.20;;
483;SDS011;228;48.922;12.198;2023-07-20T12:06:30;4.70;;;2.45;;
483;SDS011;228;48.922;12.198;2023-07-20T12:08:57;2.53;;;1.95;;
483;SDS011;228;48.922;12.198;2023-07-20T12:13:57;2.97;;;1.90;;
483;SDS011;228;48.922;12.198;2023-07-20T12:16:30;2.80;;;1.85;;
483;SDS011;228;48.922;12.198;2023-07-20T12:19:00;2.33;;;2.00;;
483;SDS011;228;48.922;12.198;2023-07-20T12:21:26;2.33;;;2.00;;
483;SDS011;228;48.922;12.198;2023-07-20T12:23:52;2.30;;;1.95;;
483;SDS011;228;48.922;12.198;2023-07-20T12:26:21;2.63;;;2.00;;
483;SDS011;228;48.922;12.198;2023-07-20T12:28:49;2.25;;;1.98;;
483;SDS011;228;48.922;12.198;2023-07-20T12:31:15;2.15;;;1.92;;
483;SDS011;228;48.922;12.198;2023-07-20T12:33:41;2.95;;;2.05;;
483;SDS011;228;48.922;12.198;2023-07-20T12:36:08;18.10;;;2.60;;
483;SDS011;228;48.922;12.198;2023-07-20T12:38:34;3.50;;;1.90;;
483;SDS011;228;48.922;12.198;2023-07-20T12:41:01;5.50;;;1.92;;
483;SDS011;228;48.922;12.198;2023-07-20T12:43:27;6.57;;;1.90;;
483;SDS011;228;48.922;12.198;2023-07-20T12:45:54;2.03;;;1.80;;
483;SDS011;228;48.922;12.198;2023-07-20T12:48:21;7.15;;;2.20;;
483;SDS011;228;48.922;12.198;2023-07-20T12:50:47;2.60;;;2.13;;
483;SDS011;228;48.922;12.198;2023-07-20T12:53:13;1.90;;;1.60;;
483;SDS011;228;48.922;12.198;2023-07-20T12:55:40;3.10;;;2.20;;
483;SDS011;228;48.922;12.198;2023-07-20T12:58:06;2.85;;;2.10;;
483;SDS011;228;48.922;12.198;2023-07-20T13:00:34;2.40;;;2.10;;
483;SDS011;228;48.922;12.198;2023-07-20T13:03:00;3.55;;;2.00;;
483;SDS011;228;48.922;12.198;2023-07-20T13:05:30;1.70;;;1.60;;
483;SDS011;228;48.922;12.198;2023-07-20T13:08:00;2.10;;;1.85;;
483;SDS011;228;48.922;12.198;2023-07-20T13:10:26;3.15;;;1.90;;
483;SDS011;228;48.922;12.198;2023-07-20T13:12:53;2.08;;;1.85;;
483;SDS011;228;48.922;12.198;2023-07-20T13:15:19;2.25;;;1.70;;
483;SDS011;228;48.922;12.198;2023-07-20T13:17:45;4.22;;;2.10;;
483;SDS011;228;48.922;12.198;2023-07-20T13:20:11;3.33;;;2.13;;
483;SDS011;228;48.922;12.198;2023-07-20T13:22:38;2.22;;;1.92;;
483;SDS011;228;48.922;12.198;2023-07-20T13:25:04;2.80;;;1.70;;
483;SDS011;228;48.922;12.198;2023-07-20T13:27:31;1.80;;;1.70;;
483;SDS011;228;48.922;12.198;2023-07-20T13:29:59;1.73;;;1.63;;
483;SDS011;228;48.922;12.198;2023-07-20T13:32:28;2.15;;;1.95;;
483;SDS011;228;48.922;12.198;2023-07-20T13:34:54;2.33;;;1.90;;
483;SDS011;228;48.922;12.198;2023-07-20T13:37:20;2.38;;;1.75;;
483;SDS011;228;48.922;12.198;2023-07-20T13:39:48;1.98;;;1.75;;
483;SDS011;228;48.922;12.198;2023-07-20T13:42:14;2.53;;;1.95;;
483;SDS011;228;48.922;12.198;2023-07-20T13:44:40;2.25;;;1.80;;
483;SDS011;228;48.922;12.198;2023-07-20T13:47:06;2.17;;;2.00;;
483;SDS011;228;48.922;12.198;2023-07-20T13:49:32;2.85;;;1.92;;
483;SDS011;228;48.922;12.198;2023-07-20T13:51:59;4.20;;;1.80;;
483;SDS011;228;48.922;12.198;2023-07-20T13:54:26;2.90;;;2.05;;
483;SDS011;228;48.922;12.198;2023-07-20T13:56:52;2.72;;;1.80;;
483;SDS011;228;48.922;12.198;2023-07-20T13:59:18;3.40;;;1.90;;
483;SDS011;228;48.922;12.198;2023-07-20T14:01:45;3.38;;;1.80;;
483;SDS011;228;48.922;12.198;2023-07-20T14:04:12;3.33;;;1.80;;
483;SDS011;228;48.922;12.198;2023-07-20T14:06:38;4.22;;;2.03;;
483;SDS011;228;48.922;12.198;2023-07-20T14:09:05;4.72;;;1.92;;
483;SDS011;228;48.922;12.198;2023-07-20T14:11:31;3.70;;;1.90;;
483;SDS011;228;48.922;12.198;2023-07-20T14:13:57;3.30;;;1.88;;
483;SDS011;228;48.922;12.198;2023-07-20T14:16:25;2.03;;;1.83;;
483;SDS011;228;48.922;12.198;2023-07-20T14:18:52;1.73;;;1.60;;
483;SDS011;228;48.922;12.198;2023-07-20T14:21:18;3.10;;;1.90;;
483;SDS011;228;48.922;12.198;2023-07-20T14:23:45;2.83;;;1.48;;
483;SDS011;228;48.922;12.198;2023-07-20T14:26:12;2.05;;;1.85;;
483;SDS011;228;48.922;12.198;2023-07-20T14:28:38;1.98;;;1.88;;
483;SDS011;228;48.922;12.198;2023-07-20T14:31:04;1.85;;;1.65;;
483;SDS011;228;48.922;12.198;2023-07-20T14:33:31;4.43;;;1.83;;
483;SDS011;228;48.922;12.198;2023-07-20T14:35:57;3.50;;;2.13;;
483;SDS011;228;48.922;12.198;2023-07-20T14:38:23;4.10;;;1.92;;
483;SDS011;228;48.922;12.198;2023-07-20T14:40:49;4.72;;;1.92;;
483;SDS011;228;48.922;12.198;2023-07-20T14:43:15;2.28;;;1.85;;
483;SDS011;228;48.922;12.198;2023-07-20T14:45:42;1.95;;;1.75;;
483;SDS011;228;48.922;12.198;2023-07-20T14:48:11;1.83;;;1.70;;
483;SDS011;228;48.922;12.198;2023-07-20T14:50:38;1.70;;;1.60;;
483;SDS011;228;48.922;12.198;2023-07-20T14:53:05;2.10;;;1.70;;
483;SDS011;228;48.922;12.198;2023-07-20T14:55:33;2.47;;;1.70;;
483;SDS011;228;48.922;12.198;2023-07-20T14:57:59;2.22;;;1.90;;
483;SDS011;228;48.922;12.198;2023-07-20T15:00:26;1.65;;;1.52;;
483;SDS011;228;48.922;12.198;2023-07-20T15:02:52;2.20;;;2.00;;
483;SDS011;228;48.922;12.198;2023-07-20T15:05:21;2.92;;;1.90;;
483;SDS011;228;48.922;12.198;2023-07-20T15:07:49;2.88;;;1.67;;
483;SDS011;228;48.922;12.198;2023-07-20T15:10:15;2.05;;;1.80;;
483;SDS011;228;48.922;12.198;2023-07-20T15:12:42;3.63;;;1.80;;
483;SDS011;228;48.922;12.198;2023-07-20T15:15:08;2.90;;;2.03;;
483;SDS011;228;48.922;12.198;2023-07-20T15:17:36;2.08;;;1.90;;
483;SDS011;228;48.922;12.198;2023-07-20T15:20:03;2.03;;;1.83;;
483;SDS011;228;48.922;12.198;2023-07-20T15:22:31;3.03;;;2.40;;
483;SDS011;228;48.922;12.198;2023-07-20T15:24:58;2.85;;;2.35;;
483;SDS011;228;48.922;12.198;2023-07-20T15:27:25;3.35;;;1.80;;
483;SDS011;228;48.922;12.198;2023-07-20T15:29:51;3.92;;;2.20;;
483;SDS011;228;48.922;12.198;2023-07-20T15:32:17;2.08;;;1.70;;
483;SDS011;228;48.922;12.198;2023-07-20T15:34:44;2.80;;;1.80;;
483;SDS011;228;48.922;12.198;2023-07-20T15:37:11;2.53;;;1.67;;
483;SDS011;228;48.922;12.198;2023-07-20T15:39:38;2.78;;;1.80;;
483;SDS011;228;48.922;12.198;2023-07-20T15:42:06;1.73;;;1.63;;
483;SDS011;228;48.922;12.198;2023-07-20T15:44:32;2.30;;;1.90;;
483;SDS011;228;48.922;12.198;2023-07-20T15:46:58;2.35;;;1.90;;
483;SDS011;228;48.922;12.198;2023-07-20T15:49:24;2.05;;;1.77;;
483;SDS011;228;48.922;12.198;2023-07-20T15:51:50;2.38;;;1.67;;
483;SDS011;228;48.922;12.198;2023-07-20T15:54:17;2.13;;;1.55;;
483;SDS011;228;48.922;12.198;2023-07-20T15:56:43;2.53;;;2.08;;
483;SDS011;228;48.922;12.198;2023-07-20T15:59:13;4.53;;;2.75;;
483;SDS011;228;48.922;12.198;2023-07-20T16:01:41;9.85;;;7.55;;
483;SDS011;228;48.922;12.198;2023-07-20T16:04:08;1.90;;;1.80;;
483;SDS011;228;48.922;12.198;2023-07-20T16:06:34;5.93;;;5.32;;
483;SDS011;228;48.922;12.198;2023-07-20T16:09:01;9.73;;;7.07;;
483;SDS011;228;48.922;12.198;2023-07-20T16:11:31;6.72;;;5.70;;
483;SDS011;228;48.922;12.198;2023-07-20T16:13:59;8.70;;;7.70;;
483;SDS011;228;48.922;12.198;2023-07-20T16:16:25;4.50;;;1.77;;
483;SDS011;228;48.922;12.198;2023-07-20T16:18:51;2.92;;;1.80;;
483;SDS011;228;48.922;12.198;2023-07-20T16:21:19;1.92;;;1.80;;
483;SDS011;228;48.922;12.198;2023-07-20T16:23:46;3.03;;;2.05;;
483;SDS011;228;48.922;12.198;2023-07-20T16:26:13;3.35;;;1.90;;
483;SDS011;228;48.922;12.198;2023-07-20T16:28:39;3.83;;;1.90;;
483;SDS011;228;48.922;12.198;2023-07-20T16:31:12;3.45;;;2.05;;
483;SDS011;228;48.922;12.198;2023-07-20T16:33:40;4.97;;;2.13;;
483;SDS011;228;48.922;12.198;2023-07-20T16:36:07;1.70;;;1.60;;
483;SDS011;228;48.922;12.198;2023-07-20T16:38:35;1.98;;;1.77;;
483;SDS011;228;48.922;12.198;2023-07-20T16:41:01;3.10;;;1.70;;
483;SDS011;228;48.922;12.198;2023-07-20T16:43:27;1.80;;;1.70;;
483;SDS011;228;48.922;12.198;2023-07-20T16:46:03;2.72;;;1.70;;
483;SDS011;228;48.922;12.198;2023-07-20T16:48:39;5.75;;;2.42;;
483;SDS011;228;48.922;12.198;2023-07-20T16:51:06;2.20;;;1.95;;
483;SDS011;228;48.922;12.198;2023-07-20T16:53:34;3.55;;;2.55;;
483;SDS011;228;48.922;12.198;2023-07-20T16:56:00;3.22;;;2.28;;
483;SDS011;228;48.922;12.198;2023-07-20T16:58:26;5.13;;;2.13;;
483;SDS011;228;48.922;12.198;2023-07-20T17:00:58;4.32;;;2.30;;
483;SDS011;228;48.922;12.198;2023-07-20T17:03:30;3.92;;;2.72;;
483;SDS011;228;48.922;12.198;2023-07-20T17:05:57;2.47;;;2.03;;
483;SDS011;228;48.922;12.198;2023-07-20T17:08:23;1.85;;;1.75;;
483;SDS011;228;48.922;12.198;2023-07-20T17:10:51;2.28;;;1.80;;
483;SDS011;228;48.922;12.198;2023-07-20T17:13:17;2.72;;;1.75;;
483;SDS011;228;48.922;12.198;2023-07-20T17:15:49;2.42;;;1.80;;
483;SDS011;228;48.922;12.198;2023-07-20T17:18:18;3.15;;;1.83;;
483;SDS011;228;48.922;12.198;2023-07-20T17:20:45;3.03;;;1.80;;
483;SDS011;228;48.922;12.198;2023-07-20T17:23:12;1.90;;;1.77;;
483;SDS011;228;48.922;12.198;2023-07-20T17:25:43;1.70;;;1.60;;
483;SDS011;228;48.922;12.198;2023-07-20T17:28:10;2.20;;;2.00;;
483;SDS011;228;48.922;12.198;2023-07-20T17:30:36;2.30;;;1.75;;
483;SDS011;228;48.922;12.198;2023-07-20T17:33:02;3.15;;;1.70;;
483;SDS011;228;48.922;12.198;2023-07-20T17:35:28;2.58;;;1.70;;
483;SDS011;228;48.922;12.198;2023-07-20T17:37:54;2.30;;;1.80;;
483;SDS011;228;48.922;12.198;2023-07-20T17:40:21;2.70;;;1.70;;
483;SDS011;228;48.922;12.198;2023-07-20T17:42:48;3.30;;;2.03;;
483;SDS011;228;48.922;12.198;2023-07-20T17:45:15;4.05;;;2.10;;
483;SDS011;228;48.922;12.198;2023-07-20T17:47:41;2.10;;;1.90;;
483;SDS011;228;48.922;12.198;2023-07-20T17:50:08;2.28;;;1.67;;
483;SDS011;228;48.922;12.198;2023-07-20T17:52:38;4.60;;;1.85;;
483;SDS011;228;48.922;12.198;2023-07-20T17:55:05;3.63;;;1.90;;
483;SDS011;228;48.922;12.198;2023-07-20T17:57:31;2.47;;;1.77;;
483;SDS011;228;48.922;12.198;2023-07-20T17:59:57;3.72;;;1.90;;
483;SDS011;228;48.922;12.198;2023-07-20T18:02:24;1.92;;;1.70;;
483;SDS011;228;48.922;12.198;2023-07-20T18:04:52;3.72;;;2.15;;
483;SDS011;228;48.922;12.198;2023-07-20T18:07:18;2.65;;;1.63;;
483;SDS011;228;48.922;12.198;2023-07-20T18:09:44;2.65;;;2.00;;
483;SDS011;228;48.922;12.198;2023-07-20T18:12:11;6.82;;;1.80;;
483;SDS011;228;48.922;12.198;2023-07-20T18:14:37;3.33;;;1.80;;
483;SDS011;228;48.922;12.198;2023-07-20T18:17:03;2.42;;;1.88;;
483;SDS011;228;48.922;12.198;2023-07-20T18:19:29;2.75;;;1.77;;
483;SDS011;228;48.922;12.198;2023-07-20T18:21:55;3.08;;;1.80;;
483;SDS011;228;48.922;12.198;2023-07-20T18:24:21;4.38;;;2.17;;
483;SDS011;228;48.922;12.198;2023-07-20T18:26:48;3.10;;;1.85;;
483;SDS011;228;48.922;12.198;2023-07-20T18:29:14;4.60;;;1.88;;
483;SDS011;228;48.922;12.198;2023-07-20T18:31:40;2.65;;;1.73;;
483;SDS011;228;48.922;12.198;2023-07-20T18:34:06;3.90;;;1.60;;
483;SDS011;228;48.922;12.198;2023-07-20T18:36:32;3.03;;;1.65;;
483;SDS011;228;48.922;12.198;2023-07-20T18:38:58;2.17;;;1.83;;
483;SDS011;228;48.922;12.198;2023-07-20T18:41:23;2.22;;;1.85;;
483;SDS011;228;48.922;12.198;2023-07-20T18:43:50;3.13;;;1.70;;
483;SDS011;228;48.922;12.198;2023-07-20T18:46:16;2.13;;;1.67;;
483;SDS011;228;48.922;12.198;2023-07-20T18:48:45;5.70;;;1.80;;
483;SDS011;228;48.922;12.198;2023-07-20T18:51:11;3.38;;;1.80;;
483;SDS011;228;48.922;12.198;2023-07-20T18:53:39;6.35;;;1.83;;
483;SDS011;228;48.922;12.198;2023-07-20T18:56:06;2.50;;;2.30;;
483;SDS011;228;48.922;12.198;2023-07-20T18:58:32;2.20;;;1.80;;
483;SDS011;228;48.922;12.198;2023-07-20T19:00:59;4.53;;;1.70;;
483;SDS011;228;48.922;12.198;2023-07-20T19:03:27;3.20;;;2.00;;
483;SDS011;228;48.922;12.198;2023-07-20T19:05:53;6.95;;;2.05;;
483;SDS011;228;48.922;12.198;2023-07-20T19:08:19;2.30;;;1.88;;
483;SDS011;228;48.922;12.198;2023-07-20T19:10:45;4.57;;;2.00;;
483;SDS011;228;48.922;12.198;2023-07-20T19:13:11;4.20;;;1.95;;
483;SDS011;228;48.922;12.198;2023-07-20T19:15:39;5.50;;;1.75;;
483;SDS011;228;48.922;12.198;2023-07-20T19:18:05;3.38;;;1.98;;
483;SDS011;228;48.922;12.198;2023-07-20T19:20:31;2.08;;;1.88;;
483;SDS011;228;48.922;12.198;2023-07-20T19:23:01;2.55;;;1.90;;
483;SDS011;228;48.922;12.198;2023-07-20T19:25:27;3.63;;;1.80;;
483;SDS011;228;48.922;12.198;2023-07-20T19:27:54;5.72;;;2.05;;
483;SDS011;228;48.922;12.198;2023-07-20T19:30:20;3.95;;;1.95;;
483;SDS011;228;48.922;12.198;2023-07-20T19:32:46;5.85;;;1.75;;
483;SDS011;228;48.922;12.198;2023-07-20T19:35:12;5.07;;;1.85;;
483;SDS011;228;48.922;12.198;2023-07-20T19:37:40;4.43;;;1.92;;
483;SDS011;228;48.922;12.198;2023-07-20T19:40:10;2.30;;;1.80;;
483;SDS011;228;48.922;12.198;2023-07-20T19:42:36;5.88;;;1.80;;
483;SDS011;228;48.922;12.198;2023-07-20T19:45:02;4.15;;;1.90;;
483;SDS011;228;48.922;12.198;2023-07-20T19:47:29;3.10;;;2.20;;
483;SDS011;228;48.922;12.198;2023-07-20T19:49:55;3.05;;;1.90;;